sensor_id;sensor_type;location;lat;lon;timestamp;temperature;humidity
10451;DHT22;5273;51.290;6.918;2022-09-09T00:01:19;16.30;99.90
10451;DHT22;5273;51.290;6.918;2022-09-09T00:03:54;16.30;99.90
10451;DHT22;5273;51.290;6.918;2022-09-09T00:06:28;16.20;99.90
10451;DHT22;5273;51.290;6.918;2022-09-09T00:09:01;16.20;99.90
10451;DHT22;5273;51.290;6.918;2022-09-09T00:11:36;16.10;99.90
10451;DHT22;5273;51.290;6.918;2022-09-09T00:14:12;16.00;99.90
10451;DHT22;5273;51.290;6.918;2022-09-09T00:16:42;16.00;99.90
10451;DHT22;5273;51.290;6.918;2022-09-09T00:19:17;15.90;99.90
10451;DHT22;5273;51.290;6.918;2022-09-09T00:21:52;15.70;99.90
10451;DHT22;5273;51.290;6.918;2022-09-09T00:24:27;15.70;99.90
10451;DHT22;5273;51.290;6.918;2022-09-09T00:27:00;15.70;99.90
10451;DHT22;5273;51.290;6.918;2022-09-09T00:29:34;15.70;99.90
10451;DHT22;5273;51.290;6.918;2022-09-09T00:32:12;15.70;99.90
10451;DHT22;5273;51.290;6.918;2022-09-09T00:34:47;15.50;99.90
10451;DHT22;5273;51.290;6.918;2022-09-09T00:37:15;15.60;99.90
10451;DHT22;5273;51.290;6.918;2022-09-09T00:39:45;15.40;99.90
10451;DHT22;5273;51.290;6.918;2022-09-09T00:42:15;15.60;99.90
10451;DHT22;5273;51.290;6.918;2022-09-09T00:44:56;15.40;99.90
10451;DHT22;5273;51.290;6.918;2022-09-09T00:47:38;15.40;99.90
10451;DHT22;5273;51.290;6.918;2022-09-09T00:50:23;15.50;99.90
10451;DHT22;5273;51.290;6.918;2022-09-09T00:53:07;15.40;99.90
10451;DHT22;5273;51.290;6.918;2022-09-09T00:55:41;15.50;99.90
10451;DHT22;5273;51.290;6.918;2022-09-09T00:58:12;15.50;99.90
10451;DHT22;5273;51.290;6.918;2022-09-09T01:00:43;15.50;99.90
10451;DHT22;5273;51.290;6.918;2022-09-09T01:03:20;15.50;99.90
10451;DHT22;5273;51.290;6.918;2022-09-09T01:05:59;15.60;99.90
10451;DHT22;5273;51.290;6.918;2022-09-09T01:11:22;15.60;99.90
10451;DHT22;5273;51.290;6.918;2022-09-09T01:13:55;15.70;99.90
10451;DHT22;5273;51.290;6.918;2022-09-09T01:16:26;15.70;99.90
10451;DHT22;5273;51.290;6.918;2022-09-09T01:18:54;15.70;99.90
10451;DHT22;5273;51.290;6.918;2022-09-09T01:21:31;15.90;99.90
10451;DHT22;5273;51.290;6.918;2022-09-09T01:24:20;15.90;99.90
10451;DHT22;5273;51.290;6.918;2022-09-09T01:26:51;16.20;99.90
10451;DHT22;5273;51.290;6.918;2022-09-09T01:29:21;16.10;99.90
10451;DHT22;5273;51.290;6.918;2022-09-09T01:31:55;16.00;99.90
10451;DHT22;5273;51.290;6.918;2022-09-09T01:34:25;16.00;99.90
10451;DHT22;5273;51.290;6.918;2022-09-09T01:36:57;16.10;99.90
10451;DHT22;5273;51.290;6.918;2022-09-09T01:39:24;16.10;99.90
10451;DHT22;5273;51.290;6.918;2022-09-09T01:41:53;16.10;99.90
10451;DHT22;5273;51.290;6.918;2022-09-09T01:44:20;16.00;99.90
10451;DHT22;5273;51.290;6.918;2022-09-09T01:46:47;15.80;99.90
10451;DHT22;5273;51.290;6.918;2022-09-09T01:49:14;15.90;99.90
10451;DHT22;5273;51.290;6.918;2022-09-09T01:51:41;16.00;99.90
10451;DHT22;5273;51.290;6.918;2022-09-09T01:54:09;16.00;99.90
10451;DHT22;5273;51.290;6.918;2022-09-09T01:56:43;15.90;99.90
10451;DHT22;5273;51.290;6.918;2022-09-09T01:59:36;16.00;99.90
10451;DHT22;5273;51.290;6.918;2022-09-09T02:02:10;15.90;99.90
10451;DHT22;5273;51.290;6.918;2022-09-09T02:04:40;15.90;99.90
10451;DHT22;5273;51.290;6.918;2022-09-09T02:07:19;16.00;99.90
10451;DHT22;5273;51.290;6.918;2022-09-09T02:09:52;15.90;99.90
10451;DHT22;5273;51.290;6.918;2022-09-09T02:12:23;15.80;99.90
10451;DHT22;5273;51.290;6.918;2022-09-09T02:14:56;15.90;99.90
10451;DHT22;5273;51.290;6.918;2022-09-09T02:17:27;15.90;99.90
10451;DHT22;5273;51.290;6.918;2022-09-09T02:19:59;16.00;99.90
10451;DHT22;5273;51.290;6.918;2022-09-09T02:22:30;15.90;99.90
10451;DHT22;5273;51.290;6.918;2022-09-09T02:25:00;16.00;99.90
10451;DHT22;5273;51.290;6.918;2022-09-09T02:27:27;15.90;99.90
10451;DHT22;5273;51.290;6.918;2022-09-09T02:29:57;16.00;99.90
10451;DHT22;5273;51.290;6.918;2022-09-09T02:32:24;16.00;99.90
10451;DHT22;5273;51.290;6.918;2022-09-09T02:34:54;16.00;99.90
10451;DHT22;5273;51.290;6.918;2022-09-09T02:37:24;16.00;99.90
10451;DHT22;5273;51.290;6.918;2022-09-09T02:39:54;16.00;99.90
10451;DHT22;5273;51.290;6.918;2022-09-09T02:42:21;15.90;99.90
10451;DHT22;5273;51.290;6.918;2022-09-09T02:44:48;16.00;99.90
10451;DHT22;5273;51.290;6.918;2022-09-09T02:47:25;16.00;99.90
10451;DHT22;5273;51.290;6.918;2022-09-09T02:50:01;16.00;99.90
10451;DHT22;5273;51.290;6.918;2022-09-09T02:52:33;16.00;99.90
10451;DHT22;5273;51.290;6.918;2022-09-09T02:55:07;16.00;99.90
10451;DHT22;5273;51.290;6.918;2022-09-09T02:57:35;16.00;99.90
10451;DHT22;5273;51.290;6.918;2022-09-09T03:00:04;16.00;99.90
10451;DHT22;5273;51.290;6.918;2022-09-09T03:02:32;16.00;99.90
10451;DHT22;5273;51.290;6.918;2022-09-09T03:04:59;16.00;99.90
10451;DHT22;5273;51.290;6.918;2022-09-09T03:07:27;16.00;99.90
10451;DHT22;5273;51.290;6.918;2022-09-09T03:09:53;16.00;99.90
10451;DHT22;5273;51.290;6.918;2022-09-09T03:12:20;15.90;99.90
10451;DHT22;5273;51.290;6.918;2022-09-09T03:14:47;16.00;99.90
10451;DHT22;5273;51.290;6.918;2022-09-09T03:17:14;15.90;99.90
10451;DHT22;5273;51.290;6.918;2022-09-09T03:19:42;16.00;99.90
10451;DHT22;5273;51.290;6.918;2022-09-09T03:22:10;15.90;99.90
10451;DHT22;5273;51.290;6.918;2022-09-09T03:24:36;15.90;99.90
10451;DHT22;5273;51.290;6.918;2022-09-09T03:27:03;15.90;99.90
10451;DHT22;5273;51.290;6.918;2022-09-09T03:29:30;15.90;99.90
10451;DHT22;5273;51.290;6.918;2022-09-09T03:31:57;15.90;99.90
10451;DHT22;5273;51.290;6.918;2022-09-09T03:34:24;15.90;99.90
10451;DHT22;5273;51.290;6.918;2022-09-09T03:36:52;15.90;99.90
10451;DHT22;5273;51.290;6.918;2022-09-09T03:39:18;16.00;99.90
10451;DHT22;5273;51.290;6.918;2022-09-09T03:41:45;16.00;99.90
10451;DHT22;5273;51.290;6.918;2022-09-09T03:44:13;16.10;99.90
10451;DHT22;5273;51.290;6.918;2022-09-09T03:46:40;16.00;99.90
10451;DHT22;5273;51.290;6.918;2022-09-09T03:49:07;15.50;99.90
10451;DHT22;5273;51.290;6.918;2022-09-09T03:51:35;16.00;99.90
10451;DHT22;5273;51.290;6.918;2022-09-09T03:54:05;16.00;99.90
10451;DHT22;5273;51.290;6.918;2022-09-09T03:56:33;16.00;99.90
10451;DHT22;5273;51.290;6.918;2022-09-09T03:59:00;16.10;99.90
10451;DHT22;5273;51.290;6.918;2022-09-09T04:01:28;16.00;99.90
10451;DHT22;5273;51.290;6.918;2022-09-09T04:03:55;16.00;99.90
10451;DHT22;5273;51.290;6.918;2022-09-09T04:06:24;16.00;99.90
10451;DHT22;5273;51.290;6.918;2022-09-09T04:08:51;16.00;99.90
10451;DHT22;5273;51.290;6.918;2022-09-09T04:11:19;16.00;99.90
10451;DHT22;5273;51.290;6.918;2022-09-09T04:13:46;15.90;99.90
10451;DHT22;5273;51.290;6.918;2022-09-09T04:16:13;15.80;99.90
10451;DHT22;5273;51.290;6.918;2022-09-09T04:18:40;16.00;99.90
10451;DHT22;5273;51.290;6.918;2022-09-09T04:21:09;15.90;99.90
10451;DHT22;5273;51.290;6.918;2022-09-09T04:23:36;15.90;99.90
10451;DHT22;5273;51.290;6.918;2022-09-09T04:26:03;15.90;99.90
10451;DHT22;5273;51.290;6.918;2022-09-09T04:28:33;15.90;99.90
10451;DHT22;5273;51.290;6.918;2022-09-09T04:31:05;15.90;99.90
10451;DHT22;5273;51.290;6.918;2022-09-09T04:33:32;15.80;99.90
10451;DHT22;5273;51.290;6.918;2022-09-09T04:35:59;15.80;99.90
10451;DHT22;5273;51.290;6.918;2022-09-09T04:38:26;15.90;99.90
10451;DHT22;5273;51.290;6.918;2022-09-09T04:40:53;15.90;99.90
10451;DHT22;5273;51.290;6.918;2022-09-09T04:43:20;15.90;99.90
10451;DHT22;5273;51.290;6.918;2022-09-09T04:45:50;15.90;99.90
10451;DHT22;5273;51.290;6.918;2022-09-09T04:48:17;15.90;99.90
10451;DHT22;5273;51.290;6.918;2022-09-09T04:50:52;15.90;99.90
10451;DHT22;5273;51.290;6.918;2022-09-09T04:53:19;15.80;99.90
10451;DHT22;5273;51.290;6.918;2022-09-09T04:55:47;15.90;99.90
10451;DHT22;5273;51.290;6.918;2022-09-09T04:58:15;15.90;99.90
10451;DHT22;5273;51.290;6.918;2022-09-09T05:00:41;15.90;99.90
10451;DHT22;5273;51.290;6.918;2022-09-09T05:03:10;16.00;99.90
10451;DHT22;5273;51.290;6.918;2022-09-09T05:05:38;16.00;99.90
10451;DHT22;5273;51.290;6.918;2022-09-09T05:08:07;15.90;99.90
10451;DHT22;5273;51.290;6.918;2022-09-09T05:10:36;15.90;99.90
10451;DHT22;5273;51.290;6.918;2022-09-09T05:13:04;16.00;99.90
10451;DHT22;5273;51.290;6.918;2022-09-09T05:15:31;16.00;99.90
10451;DHT22;5273;51.290;6.918;2022-09-09T05:17:59;16.00;99.90
10451;DHT22;5273;51.290;6.918;2022-09-09T05:20:28;16.00;99.90
10451;DHT22;5273;51.290;6.918;2022-09-09T05:22:55;16.00;99.90
10451;DHT22;5273;51.290;6.918;2022-09-09T05:25:23;16.00;99.90
10451;DHT22;5273;51.290;6.918;2022-09-09T05:27:50;16.00;99.90
10451;DHT22;5273;51.290;6.918;2022-09-09T05:30:17;16.10;99.90
10451;DHT22;5273;51.290;6.918;2022-09-09T05:32:45;16.10;99.90
10451;DHT22;5273;51.290;6.918;2022-09-09T05:35:14;16.10;99.90
10451;DHT22;5273;51.290;6.918;2022-09-09T05:37:43;16.10;99.90
10451;DHT22;5273;51.290;6.918;2022-09-09T05:40:11;16.10;99.90
10451;DHT22;5273;51.290;6.918;2022-09-09T05:42:38;16.10;99.90
10451;DHT22;5273;51.290;6.918;2022-09-09T05:45:06;16.10;99.90
10451;DHT22;5273;51.290;6.918;2022-09-09T05:47:34;16.10;99.90
10451;DHT22;5273;51.290;6.918;2022-09-09T05:50:03;16.10;99.90
10451;DHT22;5273;51.290;6.918;2022-09-09T05:52:30;16.10;99.90
10451;DHT22;5273;51.290;6.918;2022-09-09T05:54:58;16.20;99.90
10451;DHT22;5273;51.290;6.918;2022-09-09T05:57:25;16.20;99.90
10451;DHT22;5273;51.290;6.918;2022-09-09T05:59:52;16.20;99.90
10451;DHT22;5273;51.290;6.918;2022-09-09T06:02:19;16.30;99.90
10451;DHT22;5273;51.290;6.918;2022-09-09T06:04:45;16.30;99.90
10451;DHT22;5273;51.290;6.918;2022-09-09T06:07:12;16.40;99.90
10451;DHT22;5273;51.290;6.918;2022-09-09T06:09:40;16.40;99.90
10451;DHT22;5273;51.290;6.918;2022-09-09T06:12:08;16.50;99.90
10451;DHT22;5273;51.290;6.918;2022-09-09T06:14:35;16.50;99.90
10451;DHT22;5273;51.290;6.918;2022-09-09T06:17:02;16.50;99.90
10451;DHT22;5273;51.290;6.918;2022-09-09T06:19:29;16.60;99.90
10451;DHT22;5273;51.290;6.918;2022-09-09T06:21:56;16.60;99.90
10451;DHT22;5273;51.290;6.918;2022-09-09T06:24:22;16.70;99.90
10451;DHT22;5273;51.290;6.918;2022-09-09T06:26:49;16.70;99.90
10451;DHT22;5273;51.290;6.918;2022-09-09T06:29:17;16.70;99.90
10451;DHT22;5273;51.290;6.918;2022-09-09T06:31:44;16.70;99.90
10451;DHT22;5273;51.290;6.918;2022-09-09T06:34:11;16.80;99.90
10451;DHT22;5273;51.290;6.918;2022-09-09T06:36:38;16.90;99.90
10451;DHT22;5273;51.290;6.918;2022-09-09T06:39:06;16.90;99.90
10451;DHT22;5273;51.290;6.918;2022-09-09T06:41:34;16.90;99.90
10451;DHT22;5273;51.290;6.918;2022-09-09T06:44:01;17.00;99.90
10451;DHT22;5273;51.290;6.918;2022-09-09T06:46:30;17.00;99.90
10451;DHT22;5273;51.290;6.918;2022-09-09T06:48:58;16.90;99.90
10451;DHT22;5273;51.290;6.918;2022-09-09T06:51:27;16.90;99.90
10451;DHT22;5273;51.290;6.918;2022-09-09T06:53:55;17.00;99.90
10451;DHT22;5273;51.290;6.918;2022-09-09T06:56:25;17.00;99.90
10451;DHT22;5273;51.290;6.918;2022-09-09T06:58:54;17.00;99.90
10451;DHT22;5273;51.290;6.918;2022-09-09T07:01:22;17.10;99.90
10451;DHT22;5273;51.290;6.918;2022-09-09T07:03:52;17.20;99.90
10451;DHT22;5273;51.290;6.918;2022-09-09T07:06:21;17.30;99.90
10451;DHT22;5273;51.290;6.918;2022-09-09T07:08:49;17.30;99.90
10451;DHT22;5273;51.290;6.918;2022-09-09T07:11:19;17.40;99.90
10451;DHT22;5273;51.290;6.918;2022-09-09T07:13:46;17.30;99.90
10451;DHT22;5273;51.290;6.918;2022-09-09T07:16:14;17.40;99.90
10451;DHT22;5273;51.290;6.918;2022-09-09T07:18:41;17.40;99.90
10451;DHT22;5273;51.290;6.918;2022-09-09T07:21:11;17.40;99.90
10451;DHT22;5273;51.290;6.918;2022-09-09T07:23:39;17.50;99.90
10451;DHT22;5273;51.290;6.918;2022-09-09T07:26:08;17.40;99.90
10451;DHT22;5273;51.290;6.918;2022-09-09T07:28:36;17.50;99.90
10451;DHT22;5273;51.290;6.918;2022-09-09T07:31:04;17.50;99.90
10451;DHT22;5273;51.290;6.918;2022-09-09T07:33:32;17.50;99.90
10451;DHT22;5273;51.290;6.918;2022-09-09T07:36:04;17.50;99.90
10451;DHT22;5273;51.290;6.918;2022-09-09T07:38:37;17.50;99.90
10451;DHT22;5273;51.290;6.918;2022-09-09T07:41:06;17.60;99.90
10451;DHT22;5273;51.290;6.918;2022-09-09T07:43:34;17.60;99.90
10451;DHT22;5273;51.290;6.918;2022-09-09T07:46:01;17.70;99.90
10451;DHT22;5273;51.290;6.918;2022-09-09T07:48:28;17.70;99.90
10451;DHT22;5273;51.290;6.918;2022-09-09T07:51:04;17.90;99.90
10451;DHT22;5273;51.290;6.918;2022-09-09T07:53:34;17.90;99.90
10451;DHT22;5273;51.290;6.918;2022-09-09T07:56:06;18.20;99.90
10451;DHT22;5273;51.290;6.918;2022-09-09T07:58:35;18.60;99.90
10451;DHT22;5273;51.290;6.918;2022-09-09T08:01:07;19.20;99.90
10451;DHT22;5273;51.290;6.918;2022-09-09T08:03:34;19.80;99.90
10451;DHT22;5273;51.290;6.918;2022-09-09T08:06:02;19.90;99.90
10451;DHT22;5273;51.290;6.918;2022-09-09T08:08:29;20.20;99.90
10451;DHT22;5273;51.290;6.918;2022-09-09T08:11:04;20.40;98.50
10451;DHT22;5273;51.290;6.918;2022-09-09T08:13:33;20.90;97.70
10451;DHT22;5273;51.290;6.918;2022-09-09T08:16:08;21.50;95.60
10451;DHT22;5273;51.290;6.918;2022-09-09T08:18:35;21.60;93.40
10451;DHT22;5273;51.290;6.918;2022-09-09T08:21:08;21.30;94.00
10451;DHT22;5273;51.290;6.918;2022-09-09T08:23:37;21.00;93.80
10451;DHT22;5273;51.290;6.918;2022-09-09T08:26:09;20.70;94.50
10451;DHT22;5273;51.290;6.918;2022-09-09T08:28:36;20.50;94.40
10451;DHT22;5273;51.290;6.918;2022-09-09T08:31:07;20.30;95.00
10451;DHT22;5273;51.290;6.918;2022-09-09T08:33:34;20.20;94.30
10451;DHT22;5273;51.290;6.918;2022-09-09T08:36:04;20.10;94.80
10451;DHT22;5273;51.290;6.918;2022-09-09T08:38:31;20.00;95.20
10451;DHT22;5273;51.290;6.918;2022-09-09T08:41:04;20.20;94.70
10451;DHT22;5273;51.290;6.918;2022-09-09T08:43:35;20.40;95.10
10451;DHT22;5273;51.290;6.918;2022-09-09T08:46:07;20.60;93.90
10451;DHT22;5273;51.290;6.918;2022-09-09T08:48:46;20.70;92.10
10451;DHT22;5273;51.290;6.918;2022-09-09T08:51:18;20.80;91.80
10451;DHT22;5273;51.290;6.918;2022-09-09T08:53:48;20.70;92.10
10451;DHT22;5273;51.290;6.918;2022-09-09T08:56:18;20.70;92.10
10451;DHT22;5273;51.290;6.918;2022-09-09T08:58:48;20.60;92.80
10451;DHT22;5273;51.290;6.918;2022-09-09T09:01:24;20.70;92.90
10451;DHT22;5273;51.290;6.918;2022-09-09T09:03:57;20.50;92.00
10451;DHT22;5273;51.290;6.918;2022-09-09T09:06:36;20.40;92.60
10451;DHT22;5273;51.290;6.918;2022-09-09T09:09:11;20.30;92.60
10451;DHT22;5273;51.290;6.918;2022-09-09T09:11:40;20.10;93.00
10451;DHT22;5273;51.290;6.918;2022-09-09T09:14:14;20.00;93.30
10451;DHT22;5273;51.290;6.918;2022-09-09T09:16:52;20.00;93.60
10451;DHT22;5273;51.290;6.918;2022-09-09T09:19:20;20.10;93.90
10451;DHT22;5273;51.290;6.918;2022-09-09T09:21:51;20.10;93.00
10451;DHT22;5273;51.290;6.918;2022-09-09T09:24:23;20.00;93.50
10451;DHT22;5273;51.290;6.918;2022-09-09T09:26:54;19.90;93.10
10451;DHT22;5273;51.290;6.918;2022-09-09T09:29:25;19.90;93.30
10451;DHT22;5273;51.290;6.918;2022-09-09T09:31:53;19.80;92.50
10451;DHT22;5273;51.290;6.918;2022-09-09T09:34:21;19.70;92.40
10451;DHT22;5273;51.290;6.918;2022-09-09T09:36:53;19.60;92.70
10451;DHT22;5273;51.290;6.918;2022-09-09T09:39:25;19.60;92.30
10451;DHT22;5273;51.290;6.918;2022-09-09T09:41:53;19.60;92.40
10451;DHT22;5273;51.290;6.918;2022-09-09T09:44:26;19.50;92.50
10451;DHT22;5273;51.290;6.918;2022-09-09T09:47:04;19.40;91.80
10451;DHT22;5273;51.290;6.918;2022-09-09T09:49:32;19.30;91.40
10451;DHT22;5273;51.290;6.918;2022-09-09T09:52:00;19.40;91.70
10451;DHT22;5273;51.290;6.918;2022-09-09T09:54:29;19.60;91.60
10451;DHT22;5273;51.290;6.918;2022-09-09T09:57:06;20.30;90.60
10451;DHT22;5273;51.290;6.918;2022-09-09T09:59:36;21.40;90.20
10451;DHT22;5273;51.290;6.918;2022-09-09T10:02:16;22.50;82.40
10451;DHT22;5273;51.290;6.918;2022-09-09T10:04:43;23.50;83.20
10451;DHT22;5273;51.290;6.918;2022-09-09T10:07:12;24.80;75.10
10451;DHT22;5273;51.290;6.918;2022-09-09T10:09:40;25.20;67.80
10451;DHT22;5273;51.290;6.918;2022-09-09T10:12:18;25.10;66.70
10451;DHT22;5273;51.290;6.918;2022-09-09T10:14:55;25.00;68.60
10451;DHT22;5273;51.290;6.918;2022-09-09T10:17:30;24.70;66.70
10451;DHT22;5273;51.290;6.918;2022-09-09T10:20:18;24.30;66.00
10451;DHT22;5273;51.290;6.918;2022-09-09T10:22:51;23.90;68.20
10451;DHT22;5273;51.290;6.918;2022-09-09T10:25:28;23.70;69.70
10451;DHT22;5273;51.290;6.918;2022-09-09T10:28:24;23.40;69.80
10451;DHT22;5273;51.290;6.918;2022-09-09T10:31:04;23.30;70.20
10451;DHT22;5273;51.290;6.918;2022-09-09T10:33:42;22.90;71.00
10451;DHT22;5273;51.290;6.918;2022-09-09T10:36:13;22.60;71.20
10451;DHT22;5273;51.290;6.918;2022-09-09T10:38:45;22.60;72.90
10451;DHT22;5273;51.290;6.918;2022-09-09T10:41:18;22.80;73.50
10451;DHT22;5273;51.290;6.918;2022-09-09T10:49:48;22.90;71.60
10451;DHT22;5273;51.290;6.918;2022-09-09T10:52:24;22.60;72.60
10451;DHT22;5273;51.290;6.918;2022-09-09T10:54:58;22.30;74.30
10451;DHT22;5273;51.290;6.918;2022-09-09T10:57:30;22.10;74.20
10451;DHT22;5273;51.290;6.918;2022-09-09T11:00:03;22.00;75.10
10451;DHT22;5273;51.290;6.918;2022-09-09T11:02:33;21.90;77.70
10451;DHT22;5273;51.290;6.918;2022-09-09T11:05:04;21.80;77.10
10451;DHT22;5273;51.290;6.918;2022-09-09T11:07:36;21.70;76.00
10451;DHT22;5273;51.290;6.918;2022-09-09T11:10:16;21.50;78.10
10451;DHT22;5273;51.290;6.918;2022-09-09T11:12:47;21.40;78.20
10451;DHT22;5273;51.290;6.918;2022-09-09T11:15:20;21.30;79.30
10451;DHT22;5273;51.290;6.918;2022-09-09T11:17:53;21.30;79.30
10451;DHT22;5273;51.290;6.918;2022-09-09T11:20:22;21.30;79.90
10451;DHT22;5273;51.290;6.918;2022-09-09T11:22:53;21.30;79.50
10451;DHT22;5273;51.290;6.918;2022-09-09T11:25:23;21.30;79.50
10451;DHT22;5273;51.290;6.918;2022-09-09T11:28:21;21.40;80.10
10451;DHT22;5273;51.290;6.918;2022-09-09T11:31:00;21.40;79.70
10451;DHT22;5273;51.290;6.918;2022-09-09T11:34:03;21.30;79.20
10451;DHT22;5273;51.290;6.918;2022-09-09T11:36:49;21.10;80.30
10451;DHT22;5273;51.290;6.918;2022-09-09T11:39:38;20.80;81.20
10451;DHT22;5273;51.290;6.918;2022-09-09T11:42:18;20.70;82.40
10451;DHT22;5273;51.290;6.918;2022-09-09T11:44:45;20.70;88.10
10451;DHT22;5273;51.290;6.918;2022-09-09T11:47:24;20.70;89.20
10451;DHT22;5273;51.290;6.918;2022-09-09T11:50:07;20.80;88.00
10451;DHT22;5273;51.290;6.918;2022-09-09T11:52:37;20.80;88.50
10451;DHT22;5273;51.290;6.918;2022-09-09T11:55:09;21.00;89.50
10451;DHT22;5273;51.290;6.918;2022-09-09T11:57:38;21.10;87.80
10451;DHT22;5273;51.290;6.918;2022-09-09T12:00:33;21.30;89.20
10451;DHT22;5273;51.290;6.918;2022-09-09T12:03:00;21.60;87.60
10451;DHT22;5273;51.290;6.918;2022-09-09T12:05:38;21.70;85.80
10451;DHT22;5273;51.290;6.918;2022-09-09T12:08:06;21.80;85.70
10451;DHT22;5273;51.290;6.918;2022-09-09T12:10:39;21.80;84.90
10451;DHT22;5273;51.290;6.918;2022-09-09T12:13:16;21.70;83.50
10451;DHT22;5273;51.290;6.918;2022-09-09T12:15:48;21.50;83.20
10451;DHT22;5273;51.290;6.918;2022-09-09T12:18:22;21.40;84.20
10451;DHT22;5273;51.290;6.918;2022-09-09T12:20:57;21.20;83.90
10451;DHT22;5273;51.290;6.918;2022-09-09T12:23:34;21.00;84.70
10451;DHT22;5273;51.290;6.918;2022-09-09T12:26:23;21.00;89.00
10451;DHT22;5273;51.290;6.918;2022-09-09T12:29:02;21.00;90.10
10451;DHT22;5273;51.290;6.918;2022-09-09T12:31:34;20.90;90.80
10451;DHT22;5273;51.290;6.918;2022-09-09T12:34:10;21.00;90.60
10451;DHT22;5273;51.290;6.918;2022-09-09T12:36:40;21.20;91.40
10451;DHT22;5273;51.290;6.918;2022-09-09T12:39:16;21.50;90.80
10451;DHT22;5273;51.290;6.918;2022-09-09T12:41:51;21.50;89.40
10451;DHT22;5273;51.290;6.918;2022-09-09T12:44:23;21.80;87.80
10451;DHT22;5273;51.290;6.918;2022-09-09T12:46:51;21.90;85.00
10451;DHT22;5273;51.290;6.918;2022-09-09T12:49:27;21.70;84.00
10451;DHT22;5273;51.290;6.918;2022-09-09T12:51:56;21.70;86.20
10451;DHT22;5273;51.290;6.918;2022-09-09T12:54:24;21.70;87.60
10451;DHT22;5273;51.290;6.918;2022-09-09T12:56:51;21.50;87.40
10451;DHT22;5273;51.290;6.918;2022-09-09T12:59:23;21.50;88.90
10451;DHT22;5273;51.290;6.918;2022-09-09T13:01:55;21.50;88.20
10451;DHT22;5273;51.290;6.918;2022-09-09T13:04:22;21.50;87.90
10451;DHT22;5273;51.290;6.918;2022-09-09T13:06:49;21.40;87.30
10451;DHT22;5273;51.290;6.918;2022-09-09T13:09:19;21.30;88.70
10451;DHT22;5273;51.290;6.918;2022-09-09T13:11:48;21.30;89.10
10451;DHT22;5273;51.290;6.918;2022-09-09T13:14:18;21.20;88.90
10451;DHT22;5273;51.290;6.918;2022-09-09T13:16:56;21.10;86.30
10451;DHT22;5273;51.290;6.918;2022-09-09T13:19:23;20.70;94.40
10451;DHT22;5273;51.290;6.918;2022-09-09T13:21:53;19.80;99.90
10451;DHT22;5273;51.290;6.918;2022-09-09T13:24:31;19.60;99.90
10451;DHT22;5273;51.290;6.918;2022-09-09T13:26:59;19.30;99.90
10451;DHT22;5273;51.290;6.918;2022-09-09T13:29:27;19.20;99.90
10451;DHT22;5273;51.290;6.918;2022-09-09T13:32:04;19.30;99.90
10451;DHT22;5273;51.290;6.918;2022-09-09T13:34:33;19.30;99.90
10451;DHT22;5273;51.290;6.918;2022-09-09T13:37:02;19.30;99.90
10451;DHT22;5273;51.290;6.918;2022-09-09T13:39:33;19.50;99.90
10451;DHT22;5273;51.290;6.918;2022-09-09T13:42:02;19.50;99.90
10451;DHT22;5273;51.290;6.918;2022-09-09T13:44:33;19.50;99.90
10451;DHT22;5273;51.290;6.918;2022-09-09T13:47:03;19.60;99.90
10451;DHT22;5273;51.290;6.918;2022-09-09T13:49:30;19.60;99.90
10451;DHT22;5273;51.290;6.918;2022-09-09T13:52:09;19.70;99.90
10451;DHT22;5273;51.290;6.918;2022-09-09T13:54:38;19.70;99.90
10451;DHT22;5273;51.290;6.918;2022-09-09T13:57:05;19.60;99.90
10451;DHT22;5273;51.290;6.918;2022-09-09T13:59:32;19.80;99.90
10451;DHT22;5273;51.290;6.918;2022-09-09T14:01:59;19.90;99.90
10451;DHT22;5273;51.290;6.918;2022-09-09T14:04:27;20.00;99.90
10451;DHT22;5273;51.290;6.918;2022-09-09T14:06:54;20.00;99.90
10451;DHT22;5273;51.290;6.918;2022-09-09T14:09:22;20.00;99.90
10451;DHT22;5273;51.290;6.918;2022-09-09T14:11:50;20.00;99.90
10451;DHT22;5273;51.290;6.918;2022-09-09T14:14:17;20.10;99.90
10451;DHT22;5273;51.290;6.918;2022-09-09T14:16:43;20.10;99.90
10451;DHT22;5273;51.290;6.918;2022-09-09T14:19:10;20.10;99.90
10451;DHT22;5273;51.290;6.918;2022-09-09T14:21:37;20.20;99.90
10451;DHT22;5273;51.290;6.918;2022-09-09T14:24:04;20.30;99.90
10451;DHT22;5273;51.290;6.918;2022-09-09T14:26:31;20.40;99.90
10451;DHT22;5273;51.290;6.918;2022-09-09T14:28:59;20.60;99.90
10451;DHT22;5273;51.290;6.918;2022-09-09T14:31:26;20.50;99.90
10451;DHT22;5273;51.290;6.918;2022-09-09T14:33:53;20.60;98.50
10451;DHT22;5273;51.290;6.918;2022-09-09T14:36:20;20.60;97.60
10451;DHT22;5273;51.290;6.918;2022-09-09T14:38:48;20.70;95.80
10451;DHT22;5273;51.290;6.918;2022-09-09T14:41:16;20.70;96.00
10451;DHT22;5273;51.290;6.918;2022-09-09T14:43:44;20.70;95.80
10451;DHT22;5273;51.290;6.918;2022-09-09T14:46:14;20.70;95.70
10451;DHT22;5273;51.290;6.918;2022-09-09T14:48:42;20.70;96.00
10451;DHT22;5273;51.290;6.918;2022-09-09T14:51:11;20.50;95.10
10451;DHT22;5273;51.290;6.918;2022-09-09T14:53:39;20.20;93.90
10451;DHT22;5273;51.290;6.918;2022-09-09T14:56:07;19.90;93.60
10451;DHT22;5273;51.290;6.918;2022-09-09T14:58:35;19.60;94.60
10451;DHT22;5273;51.290;6.918;2022-09-09T15:01:03;19.50;95.30
10451;DHT22;5273;51.290;6.918;2022-09-09T15:03:32;19.20;96.60
10451;DHT22;5273;51.290;6.918;2022-09-09T15:06:05;19.00;98.40
10451;DHT22;5273;51.290;6.918;2022-09-09T15:08:32;18.80;98.90
10451;DHT22;5273;51.290;6.918;2022-09-09T15:10:59;18.60;99.90
10451;DHT22;5273;51.290;6.918;2022-09-09T15:13:27;18.50;99.90
10451;DHT22;5273;51.290;6.918;2022-09-09T15:15:53;18.40;99.90
10451;DHT22;5273;51.290;6.918;2022-09-09T15:18:20;18.30;99.90
10451;DHT22;5273;51.290;6.918;2022-09-09T15:20:49;18.40;99.90
10451;DHT22;5273;51.290;6.918;2022-09-09T15:23:16;18.30;99.90
10451;DHT22;5273;51.290;6.918;2022-09-09T15:25:53;18.30;99.90
10451;DHT22;5273;51.290;6.918;2022-09-09T15:28:20;18.30;99.90
10451;DHT22;5273;51.290;6.918;2022-09-09T15:30:48;18.30;99.90
10451;DHT22;5273;51.290;6.918;2022-09-09T15:33:15;18.20;99.90
10451;DHT22;5273;51.290;6.918;2022-09-09T15:35:42;18.30;99.90
10451;DHT22;5273;51.290;6.918;2022-09-09T15:38:10;18.20;99.90
10451;DHT22;5273;51.290;6.918;2022-09-09T15:40:38;18.30;99.90
10451;DHT22;5273;51.290;6.918;2022-09-09T15:43:05;18.30;99.90
10451;DHT22;5273;51.290;6.918;2022-09-09T15:45:32;18.20;99.90
10451;DHT22;5273;51.290;6.918;2022-09-09T15:47:59;18.10;99.90
10451;DHT22;5273;51.290;6.918;2022-09-09T15:50:26;18.20;99.90
10451;DHT22;5273;51.290;6.918;2022-09-09T15:52:53;17.80;99.90
10451;DHT22;5273;51.290;6.918;2022-09-09T15:55:21;17.70;99.90
10451;DHT22;5273;51.290;6.918;2022-09-09T15:57:49;17.70;99.90
10451;DHT22;5273;51.290;6.918;2022-09-09T16:00:17;17.70;99.90
10451;DHT22;5273;51.290;6.918;2022-09-09T16:02:48;17.60;99.90
10451;DHT22;5273;51.290;6.918;2022-09-09T16:05:15;17.50;99.90
10451;DHT22;5273;51.290;6.918;2022-09-09T16:07:42;17.40;99.90
10451;DHT22;5273;51.290;6.918;2022-09-09T16:10:10;17.40;99.90
10451;DHT22;5273;51.290;6.918;2022-09-09T16:12:40;17.40;99.90
10451;DHT22;5273;51.290;6.918;2022-09-09T16:15:08;17.40;99.90